sensor_id;sensor_type;location;lat;lon;timestamp;temperature;humidity
22607;DHT22;11470;20.968;105.834;2024-03-08T00:02:04;19.80;99.90
22607;DHT22;11470;20.968;105.834;2024-03-08T00:07:09;20.00;99.90
22607;DHT22;11470;20.968;105.834;2024-03-08T00:12:13;20.00;99.90
22607;DHT22;11470;20.968;105.834;2024-03-08T00:17:18;20.00;99.90
22607;DHT22;11470;20.968;105.834;2024-03-08T00:22:23;19.90;99.90
22607;DHT22;11470;20.968;105.834;2024-03-08T00:27:28;20.00;99.90
22607;DHT22;11470;20.968;105.834;2024-03-08T00:32:34;19.90;99.90
22607;DHT22;11470;20.968;105.834;2024-03-08T00:37:41;19.90;99.90
22607;DHT22;11470;20.968;105.834;2024-03-08T00:42:46;20.00;99.90
22607;DHT22;11470;20.968;105.834;2024-03-08T00:47:51;20.00;99.90
22607;DHT22;11470;20.968;105.834;2024-03-08T00:52:56;19.90;99.90
22607;DHT22;11470;20.968;105.834;2024-03-08T00:58:01;19.90;99.90
22607;DHT22;11470;20.968;105.834;2024-03-08T01:03:06;19.90;99.90
22607;DHT22;11470;20.968;105.834;2024-03-08T01:08:11;19.90;99.90
22607;DHT22;11470;20.968;105.834;2024-03-08T01:13:16;19.90;99.90
22607;DHT22;11470;20.968;105.834;2024-03-08T01:18:22;19.90;99.90
22607;DHT22;11470;20.968;105.834;2024-03-08T01:23:27;20.00;99.90
22607;DHT22;11470;20.968;105.834;2024-03-08T01:28:33;20.10;99.90
22607;DHT22;11470;20.968;105.834;2024-03-08T01:33:38;20.10;99.90
22607;DHT22;11470;20.968;105.834;2024-03-08T01:38:44;20.20;99.90
22607;DHT22;11470;20.968;105.834;2024-03-08T01:43:49;20.40;99.90
22607;DHT22;11470;20.968;105.834;2024-03-08T01:48:54;20.40;99.90
22607;DHT22;11470;20.968;105.834;2024-03-08T01:54:01;20.40;99.90
22607;DHT22;11470;20.968;105.834;2024-03-08T01:59:08;20.30;99.90
22607;DHT22;11470;20.968;105.834;2024-03-08T02:04:13;20.30;99.90
22607;DHT22;11470;20.968;105.834;2024-03-08T02:09:18;20.30;99.90
22607;DHT22;11470;20.968;105.834;2024-03-08T02:14:23;20.40;99.90
22607;DHT22;11470;20.968;105.834;2024-03-08T02:19:28;20.40;99.90
22607;DHT22;11470;20.968;105.834;2024-03-08T02:24:33;20.60;99.90
22607;DHT22;11470;20.968;105.834;2024-03-08T02:29:40;20.60;99.90
22607;DHT22;11470;20.968;105.834;2024-03-08T02:34:45;20.60;99.90
22607;DHT22;11470;20.968;105.834;2024-03-08T02:39:50;20.50;99.90
22607;DHT22;11470;20.968;105.834;2024-03-08T02:44:55;20.40;99.90
22607;DHT22;11470;20.968;105.834;2024-03-08T02:50:00;20.50;99.90
22607;DHT22;11470;20.968;105.834;2024-03-08T02:55:06;20.50;99.90
22607;DHT22;11470;20.968;105.834;2024-03-08T03:00:14;20.50;99.90
22607;DHT22;11470;20.968;105.834;2024-03-08T03:05:23;20.40;99.90
22607;DHT22;11470;20.968;105.834;2024-03-08T03:10:28;20.40;99.90
22607;DHT22;11470;20.968;105.834;2024-03-08T03:15:33;20.40;99.90
22607;DHT22;11470;20.968;105.834;2024-03-08T03:20:38;20.50;99.90
22607;DHT22;11470;20.968;105.834;2024-03-08T03:25:47;20.40;99.90
22607;DHT22;11470;20.968;105.834;2024-03-08T03:30:52;20.40;99.90
22607;DHT22;11470;20.968;105.834;2024-03-08T03:35:57;20.40;99.90
22607;DHT22;11470;20.968;105.834;2024-03-08T03:41:03;20.40;99.90
22607;DHT22;11470;20.968;105.834;2024-03-08T03:46:14;20.50;99.90
22607;DHT22;11470;20.968;105.834;2024-03-08T03:51:23;20.60;99.90
22607;DHT22;11470;20.968;105.834;2024-03-08T03:56:28;20.50;99.90
22607;DHT22;11470;20.968;105.834;2024-03-08T04:01:34;20.50;99.90
22607;DHT22;11470;20.968;105.834;2024-03-08T04:06:42;20.50;99.90
22607;DHT22;11470;20.968;105.834;2024-03-08T04:11:48;20.50;99.90
22607;DHT22;11470;20.968;105.834;2024-03-08T04:16:58;20.50;99.90
22607;DHT22;11470;20.968;105.834;2024-03-08T04:22:03;20.50;99.90
22607;DHT22;11470;20.968;105.834;2024-03-08T04:27:08;20.70;99.90
22607;DHT22;11470;20.968;105.834;2024-03-08T04:32:13;20.60;99.90
22607;DHT22;11470;20.968;105.834;2024-03-08T04:37:18;20.40;99.90
22607;DHT22;11470;20.968;105.834;2024-03-08T04:42:29;20.40;99.90
22607;DHT22;11470;20.968;105.834;2024-03-08T04:47:37;20.50;99.90
22607;DHT22;11470;20.968;105.834;2024-03-08T04:52:42;20.50;99.90
22607;DHT22;11470;20.968;105.834;2024-03-08T04:57:48;20.30;99.90
22607;DHT22;11470;20.968;105.834;2024-03-08T05:02:53;20.10;99.90
22607;DHT22;11470;20.968;105.834;2024-03-08T05:07:58;20.20;99.90
22607;DHT22;11470;20.968;105.834;2024-03-08T05:13:06;20.30;99.90
22607;DHT22;11470;20.968;105.834;2024-03-08T05:18:11;20.50;99.90
22607;DHT22;11470;20.968;105.834;2024-03-08T05:23:18;20.70;99.90
22607;DHT22;11470;20.968;105.834;2024-03-08T05:28:24;20.60;99.90
22607;DHT22;11470;20.968;105.834;2024-03-08T05:33:29;20.50;99.90
22607;DHT22;11470;20.968;105.834;2024-03-08T05:38:34;20.70;99.90
22607;DHT22;11470;20.968;105.834;2024-03-08T05:43:41;20.40;99.90
22607;DHT22;11470;20.968;105.834;2024-03-08T05:48:46;20.20;99.90
22607;DHT22;11470;20.968;105.834;2024-03-08T05:53:51;20.20;99.90
22607;DHT22;11470;20.968;105.834;2024-03-08T05:58:57;20.40;99.90
22607;DHT22;11470;20.968;105.834;2024-03-08T06:04:03;20.50;99.90
22607;DHT22;11470;20.968;105.834;2024-03-08T06:09:08;20.50;99.90
22607;DHT22;11470;20.968;105.834;2024-03-08T06:14:16;20.40;99.90
22607;DHT22;11470;20.968;105.834;2024-03-08T06:19:23;20.30;99.90
22607;DHT22;11470;20.968;105.834;2024-03-08T06:24:29;20.20;99.90
22607;DHT22;11470;20.968;105.834;2024-03-08T06:29:35;20.20;99.90
22607;DHT22;11470;20.968;105.834;2024-03-08T06:34:40;20.20;99.90
22607;DHT22;11470;20.968;105.834;2024-03-08T06:39:45;20.40;99.90
22607;DHT22;11470;20.968;105.834;2024-03-08T06:44:50;20.50;99.90
22607;DHT22;11470;20.968;105.834;2024-03-08T06:49:55;20.60;99.90
22607;DHT22;11470;20.968;105.834;2024-03-08T06:55:00;20.70;99.90
22607;DHT22;11470;20.968;105.834;2024-03-08T07:00:06;20.70;99.90
22607;DHT22;11470;20.968;105.834;2024-03-08T07:05:16;20.80;99.90
22607;DHT22;11470;20.968;105.834;2024-03-08T07:10:25;20.70;99.90
22607;DHT22;11470;20.968;105.834;2024-03-08T07:15:34;20.80;99.90
22607;DHT22;11470;20.968;105.834;2024-03-08T07:20:42;20.70;99.90
22607;DHT22;11470;20.968;105.834;2024-03-08T07:25:50;20.80;99.90
22607;DHT22;11470;20.968;105.834;2024-03-08T07:30:55;20.80;99.90
22607;DHT22;11470;20.968;105.834;2024-03-08T07:36:14;20.70;99.90
22607;DHT22;11470;20.968;105.834;2024-03-08T07:41:19;20.90;99.90
22607;DHT22;11470;20.968;105.834;2024-03-08T07:46:27;20.60;99.90
22607;DHT22;11470;20.968;105.834;2024-03-08T07:51:35;20.60;99.90
22607;DHT22;11470;20.968;105.834;2024-03-08T07:56:39;20.60;99.90
22607;DHT22;11470;20.968;105.834;2024-03-08T08:01:44;20.60;99.90
22607;DHT22;11470;20.968;105.834;2024-03-08T08:06:52;20.50;99.90
22607;DHT22;11470;20.968;105.834;2024-03-08T08:11:59;20.60;99.90
22607;DHT22;11470;20.968;105.834;2024-03-08T08:17:05;20.70;99.90
22607;DHT22;11470;20.968;105.834;2024-03-08T08:22:13;20.80;99.90
22607;DHT22;11470;20.968;105.834;2024-03-08T08:27:17;20.70;99.90
22607;DHT22;11470;20.968;105.834;2024-03-08T08:32:22;20.70;99.90
22607;DHT22;11470;20.968;105.834;2024-03-08T08:37:27;20.60;99.90
22607;DHT22;11470;20.968;105.834;2024-03-08T08:42:32;20.50;99.90
22607;DHT22;11470;20.968;105.834;2024-03-08T08:47:41;20.40;99.90
22607;DHT22;11470;20.968;105.834;2024-03-08T08:52:47;20.40;99.90
22607;DHT22;11470;20.968;105.834;2024-03-08T08:57:52;20.40;99.90
22607;DHT22;11470;20.968;105.834;2024-03-08T09:02:57;20.30;99.90
22607;DHT22;11470;20.968;105.834;2024-03-08T09:08:02;20.20;99.90
22607;DHT22;11470;20.968;105.834;2024-03-08T09:13:07;20.30;99.90
22607;DHT22;11470;20.968;105.834;2024-03-08T09:18:24;20.40;99.90
22607;DHT22;11470;20.968;105.834;2024-03-08T09:23:29;20.40;99.90
22607;DHT22;11470;20.968;105.834;2024-03-08T09:28:34;20.50;99.90
22607;DHT22;11470;20.968;105.834;2024-03-08T09:33:39;20.60;99.90
22607;DHT22;11470;20.968;105.834;2024-03-08T09:38:44;20.50;99.90
22607;DHT22;11470;20.968;105.834;2024-03-08T09:43:50;20.40;99.90
22607;DHT22;11470;20.968;105.834;2024-03-08T09:48:55;20.40;99.90
22607;DHT22;11470;20.968;105.834;2024-03-08T09:54:00;20.20;99.90
22607;DHT22;11470;20.968;105.834;2024-03-08T09:59:19;20.00;99.90
22607;DHT22;11470;20.968;105.834;2024-03-08T10:04:44;20.00;99.90
22607;DHT22;11470;20.968;105.834;2024-03-08T10:09:52;20.00;99.90
22607;DHT22;11470;20.968;105.834;2024-03-08T10:15:01;20.10;99.90
22607;DHT22;11470;20.968;105.834;2024-03-08T10:20:16;20.20;99.90
22607;DHT22;11470;20.968;105.834;2024-03-08T10:25:22;20.00;99.90
22607;DHT22;11470;20.968;105.834;2024-03-08T10:30:28;20.10;99.90
22607;DHT22;11470;20.968;105.834;2024-03-08T10:35:33;19.90;99.90
22607;DHT22;11470;20.968;105.834;2024-03-08T10:40:39;20.00;99.90
22607;DHT22;11470;20.968;105.834;2024-03-08T10:45:46;19.90;99.90
22607;DHT22;11470;20.968;105.834;2024-03-08T10:50:53;19.60;99.90
22607;DHT22;11470;20.968;105.834;2024-03-08T10:55:58;19.60;99.90
22607;DHT22;11470;20.968;105.834;2024-03-08T11:01:04;19.60;99.90
22607;DHT22;11470;20.968;105.834;2024-03-08T11:06:45;19.60;99.90
22607;DHT22;11470;20.968;105.834;2024-03-08T11:11:52;19.70;99.90
22607;DHT22;11470;20.968;105.834;2024-03-08T11:16:57;19.70;99.90
22607;DHT22;11470;20.968;105.834;2024-03-08T11:22:03;19.70;99.90
22607;DHT22;11470;20.968;105.834;2024-03-08T11:27:09;19.60;99.90
22607;DHT22;11470;20.968;105.834;2024-03-08T11:32:17;19.40;99.90
22607;DHT22;11470;20.968;105.834;2024-03-08T11:37:28;19.20;99.90
22607;DHT22;11470;20.968;105.834;2024-03-08T11:42:36;19.10;99.90
22607;DHT22;11470;20.968;105.834;2024-03-08T11:47:45;19.10;99.90
22607;DHT22;11470;20.968;105.834;2024-03-08T11:52:50;19.00;99.90
22607;DHT22;11470;20.968;105.834;2024-03-08T11:58:02;18.90;99.90
22607;DHT22;11470;20.968;105.834;2024-03-08T12:03:09;18.90;99.90
22607;DHT22;11470;20.968;105.834;2024-03-08T12:08:17;18.90;99.90
22607;DHT22;11470;20.968;105.834;2024-03-08T12:13:22;19.00;99.90
22607;DHT22;11470;20.968;105.834;2024-03-08T12:18:28;19.00;99.90
22607;DHT22;11470;20.968;105.834;2024-03-08T12:23:34;19.00;99.90
22607;DHT22;11470;20.968;105.834;2024-03-08T12:28:42;19.00;99.90
22607;DHT22;11470;20.968;105.834;2024-03-08T12:33:55;19.10;99.90
22607;DHT22;11470;20.968;105.834;2024-03-08T12:39:03;19.10;99.90
22607;DHT22;11470;20.968;105.834;2024-03-08T12:44:09;19.20;99.90
22607;DHT22;11470;20.968;105.834;2024-03-08T12:49:16;19.30;99.90
22607;DHT22;11470;20.968;105.834;2024-03-08T12:54:26;19.30;99.90
22607;DHT22;11470;20.968;105.834;2024-03-08T12:59:32;19.40;99.90
22607;DHT22;11470;20.968;105.834;2024-03-08T13:04:37;19.50;99.90
22607;DHT22;11470;20.968;105.834;2024-03-08T13:09:43;19.40;99.90
22607;DHT22;11470;20.968;105.834;2024-03-08T13:14:48;19.30;99.90
22607;DHT22;11470;20.968;105.834;2024-03-08T13:19:53;19.50;99.90
22607;DHT22;11470;20.968;105.834;2024-03-08T13:25:02;19.40;99.90
22607;DHT22;11470;20.968;105.834;2024-03-08T13:30:10;19.20;99.90
22607;DHT22;11470;20.968;105.834;2024-03-08T13:35:18;19.10;99.90
22607;DHT22;11470;20.968;105.834;2024-03-08T13:40:28;19.10;99.90
22607;DHT22;11470;20.968;105.834;2024-03-08T13:45:36;19.10;99.90
22607;DHT22;11470;20.968;105.834;2024-03-08T13:50:43;19.10;99.90
22607;DHT22;11470;20.968;105.834;2024-03-08T13:55:49;19.10;99.90
22607;DHT22;11470;20.968;105.834;2024-03-08T14:00:57;18.90;99.90
22607;DHT22;11470;20.968;105.834;2024-03-08T14:06:03;18.90;99.90
22607;DHT22;11470;20.968;105.834;2024-03-08T14:11:13;18.90;99.90
22607;DHT22;11470;20.968;105.834;2024-03-08T14:16:19;19.00;99.90
22607;DHT22;11470;20.968;105.834;2024-03-08T14:21:28;18.90;99.90
22607;DHT22;11470;20.968;105.834;2024-03-08T14:26:33;18.90;99.90
22607;DHT22;11470;20.968;105.834;2024-03-08T14:31:39;18.80;99.90
22607;DHT22;11470;20.968;105.834;2024-03-08T14:36:47;18.80;99.90
22607;DHT22;11470;20.968;105.834;2024-03-08T14:41:53;18.80;99.90
22607;DHT22;11470;20.968;105.834;2024-03-08T14:47:00;18.70;99.90
22607;DHT22;11470;20.968;105.834;2024-03-08T14:52:06;18.80;99.90
22607;DHT22;11470;20.968;105.834;2024-03-08T14:57:33;18.80;99.90
22607;DHT22;11470;20.968;105.834;2024-03-08T15:02:39;18.80;99.90
22607;DHT22;11470;20.968;105.834;2024-03-08T15:07:45;18.80;99.90
22607;DHT22;11470;20.968;105.834;2024-03-08T15:12:51;18.80;99.90
22607;DHT22;11470;20.968;105.834;2024-03-08T15:18:00;18.80;99.90
22607;DHT22;11470;20.968;105.834;2024-03-08T15:23:08;18.80;99.90
22607;DHT22;11470;20.968;105.834;2024-03-08T15:28:14;18.90;99.90
22607;DHT22;11470;20.968;105.834;2024-03-08T15:33:20;18.90;99.90
22607;DHT22;11470;20.968;105.834;2024-03-08T15:38:30;18.90;99.90
22607;DHT22;11470;20.968;105.834;2024-03-08T15:43:36;19.00;99.90
22607;DHT22;11470;20.968;105.834;2024-03-08T15:48:45;19.00;99.90
22607;DHT22;11470;20.968;105.834;2024-03-08T15:53:51;19.00;99.90
22607;DHT22;11470;20.968;105.834;2024-03-08T15:59:00;19.00;99.90
22607;DHT22;11470;20.968;105.834;2024-03-08T16:04:11;19.00;99.90
22607;DHT22;11470;20.968;105.834;2024-03-08T16:09:16;18.90;99.90
22607;DHT22;11470;20.968;105.834;2024-03-08T16:14:22;18.90;99.90
22607;DHT22;11470;20.968;105.834;2024-03-08T16:19:27;18.70;99.90
22607;DHT22;11470;20.968;105.834;2024-03-08T16:24:35;18.70;99.90
22607;DHT22;11470;20.968;105.834;2024-03-08T16:29:46;18.70;99.90
22607;DHT22;11470;20.968;105.834;2024-03-08T16:34:53;18.80;99.90
22607;DHT22;11470;20.968;105.834;2024-03-08T16:40:00;18.70;99.90
22607;DHT22;11470;20.968;105.834;2024-03-08T16:45:09;18.70;99.90
22607;DHT22;11470;20.968;105.834;2024-03-08T16:50:19;18.70;99.90
22607;DHT22;11470;20.968;105.834;2024-03-08T16:55:28;18.60;99.90
22607;DHT22;11470;20.968;105.834;2024-03-08T17:00:47;18.60;99.90
22607;DHT22;11470;20.968;105.834;2024-03-08T17:05:53;18.60;99.90
22607;DHT22;11470;20.968;105.834;2024-03-08T17:10:59;18.70;99.90
22607;DHT22;11470;20.968;105.834;2024-03-08T17:16:05;18.70;99.90
22607;DHT22;11470;20.968;105.834;2024-03-08T17:21:10;18.80;99.90
22607;DHT22;11470;20.968;105.834;2024-03-08T17:26:18;18.70;99.90
22607;DHT22;11470;20.968;105.834;2024-03-08T17:31:23;18.80;99.90
22607;DHT22;11470;20.968;105.834;2024-03-08T17:36:29;18.70;99.90
22607;DHT22;11470;20.968;105.834;2024-03-08T17:41:37;18.70;99.90
22607;DHT22;11470;20.968;105.834;2024-03-08T17:46:45;18.70;99.90
22607;DHT22;11470;20.968;105.834;2024-03-08T17:51:54;18.70;99.90
22607;DHT22;11470;20.968;105.834;2024-03-08T17:57:01;18.50;99.90
22607;DHT22;11470;20.968;105.834;2024-03-08T18:02:06;18.50;99.90
22607;DHT22;11470;20.968;105.834;2024-03-08T18:07:10;18.40;99.90
22607;DHT22;11470;20.968;105.834;2024-03-08T18:12:15;18.40;99.90
22607;DHT22;11470;20.968;105.834;2024-03-08T18:17:20;18.40;99.90
22607;DHT22;11470;20.968;105.834;2024-03-08T18:22:24;18.40;99.90
22607;DHT22;11470;20.968;105.834;2024-03-08T18:27:29;18.40;99.90
22607;DHT22;11470;20.968;105.834;2024-03-08T18:32:34;18.40;99.90
22607;DHT22;11470;20.968;105.834;2024-03-08T18:37:43;18.40;99.90
22607;DHT22;11470;20.968;105.834;2024-03-08T18:42:50;18.40;99.90
22607;DHT22;11470;20.968;105.834;2024-03-08T18:47:55;18.30;99.90
22607;DHT22;11470;20.968;105.834;2024-03-08T18:53:02;18.30;99.90
22607;DHT22;11470;20.968;105.834;2024-03-08T18:58:07;18.30;99.90
22607;DHT22;11470;20.968;105.834;2024-03-08T19:03:13;18.40;99.90
22607;DHT22;11470;20.968;105.834;2024-03-08T19:08:19;18.40;99.90
22607;DHT22;11470;20.968;105.834;2024-03-08T19:13:26;18.40;99.90
22607;DHT22;11470;20.968;105.834;2024-03-08T19:18:32;18.30;99.90
22607;DHT22;11470;20.968;105.834;2024-03-08T19:23:36;18.30;99.90
22607;DHT22;11470;20.968;105.834;2024-03-08T19:28:41;18.30;99.90
22607;DHT22;11470;20.968;105.834;2024-03-08T19:33:48;18.30;99.90
22607;DHT22;11470;20.968;105.834;2024-03-08T19:38:53;18.30;99.90
22607;DHT22;11470;20.968;105.834;2024-03-08T19:44:01;18.30;99.90
22607;DHT22;11470;20.968;105.834;2024-03-08T19:49:07;18.30;99.90
22607;DHT22;11470;20.968;105.834;2024-03-08T19:54:12;18.30;99.90
22607;DHT22;11470;20.968;105.834;2024-03-08T19:59:19;18.20;99.90
22607;DHT22;11470;20.968;105.834;2024-03-08T20:04:24;18.20;99.90
22607;DHT22;11470;20.968;105.834;2024-03-08T20:09:30;18.30;99.90
22607;DHT22;11470;20.968;105.834;2024-03-08T20:14:36;18.30;99.90
22607;DHT22;11470;20.968;105.834;2024-03-08T20:19:41;18.30;99.90
22607;DHT22;11470;20.968;105.834;2024-03-08T20:24:46;18.20;99.90
22607;DHT22;11470;20.968;105.834;2024-03-08T20:29:52;18.20;99.90
22607;DHT22;11470;20.968;105.834;2024-03-08T20:34:57;18.20;99.90
22607;DHT22;11470;20.968;105.834;2024-03-08T20:40:02;18.10;99.90
22607;DHT22;11470;20.968;105.834;2024-03-08T20:45:10;18.10;99.90
22607;DHT22;11470;20.968;105.834;2024-03-08T20:50:17;18.10;99.90
22607;DHT22;11470;20.968;105.834;2024-03-08T20:55:22;18.10;99.90
22607;DHT22;11470;20.968;105.834;2024-03-08T21:00:28;18.10;99.90
22607;DHT22;11470;20.968;105.834;2024-03-08T21:05:46;18.10;99.90
22607;DHT22;11470;20.968;105.834;2024-03-08T21:10:55;18.10;99.90
22607;DHT22;11470;20.968;105.834;2024-03-08T21:16:00;18.20;99.90
22607;DHT22;11470;20.968;105.834;2024-03-08T21:21:05;18.10;99.90
22607;DHT22;11470;20.968;105.834;2024-03-08T21:26:13;18.10;99.90
22607;DHT22;11470;20.968;105.834;2024-03-08T21:31:19;18.10;99.90
22607;DHT22;11470;20.968;105.834;2024-03-08T21:36:27;18.20;99.90
22607;DHT22;11470;20.968;105.834;2024-03-08T21:41:33;18.20;99.90
22607;DHT22;11470;20.968;105.834;2024-03-08T21:46:37;18.30;99.90
22607;DHT22;11470;20.968;105.834;2024-03-08T21:51:42;18.20;99.90
22607;DHT22;11470;20.968;105.834;2024-03-08T21:56:50;18.20;99.90
22607;DHT22;11470;20.968;105.834;2024-03-08T22:01:55;18.20;99.90
22607;DHT22;11470;20.968;105.834;2024-03-08T22:07:00;18.20;99.90
22607;DHT22;11470;20.968;105.834;2024-03-08T22:12:06;18.10;99.90
22607;DHT22;11470;20.968;105.834;2024-03-08T22:17:13;18.10;99.90
22607;DHT22;11470;20.968;105.834;2024-03-08T22:22:22;17.90;99.90
22607;DHT22;11470;20.968;105.834;2024-03-08T22:27:28;17.90;99.90
22607;DHT22;11470;20.968;105.834;2024-03-08T22:32:33;17.80;99.90
22607;DHT22;11470;20.968;105.834;2024-03-08T22:37:37;17.50;99.90
22607;DHT22;11470;20.968;105.834;2024-03-08T22:42:44;17.40;99.90
22607;DHT22;11470;20.968;105.834;2024-03-08T22:47:49;17.40;99.90
22607;DHT22;11470;20.968;105.834;2024-03-08T22:52:54;17.30;99.90
22607;DHT22;11470;20.968;105.834;2024-03-08T22:57:59;17.30;99.90
22607;DHT22;11470;20.968;105.834;2024-03-08T23:03:05;17.40;99.90
22607;DHT22;11470;20.968;105.834;2024-03-08T23:08:14;17.40;99.90
22607;DHT22;11470;20.968;105.834;2024-03-08T23:13:22;17.30;99.90
22607;DHT22;11470;20.968;105.834;2024-03-08T23:18:28;17.30;99.90
22607;DHT22;11470;20.968;105.834;2024-03-08T23:23:33;17.10;99.90
22607;DHT22;11470;20.968;105.834;2024-03-08T23:28:43;17.00;99.90
22607;DHT22;11470;20.968;105.834;2024-03-08T23:33:48;17.10;99.90
22607;DHT22;11470;20.968;105.834;2024-03-08T23:38:53;17.20;99.90
22607;DHT22;11470;20.968;105.834;2024-03-08T23:43:59;17.30;99.90
22607;DHT22;11470;20.968;105.834;2024-03-08T23:49:05;17.50;99.90
22607;DHT22;11470;20.968;105.834;2024-03-08T23:54:11;17.60;99.90
22607;DHT22;11470;20.968;105.834;2024-03-08T23:59:16;17.70;99.90
